sensor_id;sensor_type;location;lat;lon;timestamp;P1;durP1;ratioP1;P2;durP2;ratioP2
61096;SDS011;46977;50.936;6.908;2024-03-23T00:55:05;21.38;;;7.35;;
61096;SDS011;46977;50.936;6.908;2024-03-23T00:58:06;26.83;;;7.68;;
61096;SDS011;46977;50.936;6.908;2024-03-23T01:01:07;24.20;;;7.43;;
61096;SDS011;46977;50.936;6.908;2024-03-23T01:04:08;24.45;;;8.02;;
61096;SDS011;46977;50.936;6.908;2024-03-23T01:07:10;21.17;;;8.15;;
61096;SDS011;46977;50.936;6.908;2024-03-23T01:10:11;19.60;;;7.88;;
61096;SDS011;46977;50.936;6.908;2024-03-23T01:13:12;28.65;;;11.70;;
61096;SDS011;46977;50.936;6.908;2024-03-23T01:16:14;23.17;;;9.25;;
61096;SDS011;46977;50.936;6.908;2024-03-23T01:19:15;16.35;;;5.45;;
61096;SDS011;46977;50.936;6.908;2024-03-23T01:22:16;17.27;;;4.80;;
61096;SDS011;46977;50.936;6.908;2024-03-23T01:25:17;17.45;;;5.30;;
61096;SDS011;46977;50.936;6.908;2024-03-23T01:28:19;9.35;;;4.45;;
61096;SDS011;46977;50.936;6.908;2024-03-23T01:31:21;14.68;;;4.30;;
61096;SDS011;46977;50.936;6.908;2024-03-23T01:34:22;11.68;;;4.03;;
61096;SDS011;46977;50.936;6.908;2024-03-23T01:37:25;7.18;;;3.95;;
61096;SDS011;46977;50.936;6.908;2024-03-23T01:40:26;7.20;;;2.97;;
61096;SDS011;46977;50.936;6.908;2024-03-23T01:43:28;8.73;;;3.13;;
61096;SDS011;46977;50.936;6.908;2024-03-23T01:46:29;11.30;;;3.30;;
61096;SDS011;46977;50.936;6.908;2024-03-23T01:49:30;12.70;;;3.58;;
61096;SDS011;46977;50.936;6.908;2024-03-23T01:52:32;9.52;;;3.08;;
61096;SDS011;46977;50.936;6.908;2024-03-23T01:55:33;6.10;;;2.80;;
61096;SDS011;46977;50.936;6.908;2024-03-23T01:58:34;12.20;;;3.53;;
61096;SDS011;46977;50.936;6.908;2024-03-23T02:01:35;7.35;;;2.70;;
61096;SDS011;46977;50.936;6.908;2024-03-23T02:04:37;7.22;;;3.42;;
61096;SDS011;46977;50.936;6.908;2024-03-23T02:07:41;6.18;;;2.70;;
61096;SDS011;46977;50.936;6.908;2024-03-23T02:10:43;9.65;;;3.40;;
61096;SDS011;46977;50.936;6.908;2024-03-23T02:13:45;11.77;;;2.55;;
61096;SDS011;46977;50.936;6.908;2024-03-23T02:16:46;8.50;;;3.15;;
61096;SDS011;46977;50.936;6.908;2024-03-23T02:19:48;8.15;;;3.22;;
61096;SDS011;46977;50.936;6.908;2024-03-23T02:22:53;10.90;;;4.20;;
61096;SDS011;46977;50.936;6.908;2024-03-23T02:25:54;15.98;;;4.25;;
61096;SDS011;46977;50.936;6.908;2024-03-23T02:28:55;14.70;;;3.85;;
61096;SDS011;46977;50.936;6.908;2024-03-23T02:31:57;8.90;;;3.30;;
61096;SDS011;46977;50.936;6.908;2024-03-23T02:34:59;4.65;;;1.08;;
61096;SDS011;46977;50.936;6.908;2024-03-23T02:38:01;1.85;;;0.63;;
61096;SDS011;46977;50.936;6.908;2024-03-23T02:41:03;4.40;;;0.85;;
61096;SDS011;46977;50.936;6.908;2024-03-23T02:44:05;4.10;;;0.60;;
61096;SDS011;46977;50.936;6.908;2024-03-23T02:47:06;3.28;;;1.00;;
61096;SDS011;46977;50.936;6.908;2024-03-23T02:50:08;1.63;;;0.73;;
61096;SDS011;46977;50.936;6.908;2024-03-23T02:53:10;3.50;;;0.70;;
61096;SDS011;46977;50.936;6.908;2024-03-23T02:56:11;3.50;;;0.63;;
61096;SDS011;46977;50.936;6.908;2024-03-23T02:59:16;4.28;;;0.93;;
61096;SDS011;46977;50.936;6.908;2024-03-23T03:02:17;3.15;;;1.08;;
61096;SDS011;46977;50.936;6.908;2024-03-23T03:05:19;6.75;;;0.88;;
61096;SDS011;46977;50.936;6.908;2024-03-23T03:08:20;5.60;;;0.90;;
61096;SDS011;46977;50.936;6.908;2024-03-23T03:11:21;3.47;;;0.80;;
61096;SDS011;46977;50.936;6.908;2024-03-23T03:14:22;4.70;;;0.70;;
61096;SDS011;46977;50.936;6.908;2024-03-23T03:17:24;5.05;;;1.00;;
61096;SDS011;46977;50.936;6.908;2024-03-23T03:20:25;17.25;;;2.92;;
61096;SDS011;46977;50.936;6.908;2024-03-23T03:23:26;7.13;;;1.30;;
61096;SDS011;46977;50.936;6.908;2024-03-23T03:26:27;7.82;;;1.45;;
61096;SDS011;46977;50.936;6.908;2024-03-23T03:29:29;8.77;;;1.45;;
61096;SDS011;46977;50.936;6.908;2024-03-23T03:32:36;3.78;;;0.90;;
61096;SDS011;46977;50.936;6.908;2024-03-23T03:35:37;6.53;;;0.95;;
61096;SDS011;46977;50.936;6.908;2024-03-23T03:38:39;4.25;;;0.75;;
61096;SDS011;46977;50.936;6.908;2024-03-23T03:41:40;6.32;;;1.40;;
61096;SDS011;46977;50.936;6.908;2024-03-23T03:44:41;3.42;;;0.70;;
61096;SDS011;46977;50.936;6.908;2024-03-23T03:47:43;7.32;;;0.73;;
61096;SDS011;46977;50.936;6.908;2024-03-23T03:50:44;4.25;;;1.10;;
61096;SDS011;46977;50.936;6.908;2024-03-23T03:53:45;2.75;;;0.90;;
61096;SDS011;46977;50.936;6.908;2024-03-23T03:56:47;8.95;;;1.50;;
61096;SDS011;46977;50.936;6.908;2024-03-23T03:59:48;6.97;;;0.75;;
61096;SDS011;46977;50.936;6.908;2024-03-23T04:02:50;3.10;;;1.17;;
61096;SDS011;46977;50.936;6.908;2024-03-23T04:05:53;8.38;;;1.13;;
61096;SDS011;46977;50.936;6.908;2024-03-23T04:11:56;8.30;;;1.27;;
61096;SDS011;46977;50.936;6.908;2024-03-23T04:14:57;11.13;;;1.30;;
61096;SDS011;46977;50.936;6.908;2024-03-23T04:17:58;6.45;;;0.82;;
61096;SDS011;46977;50.936;6.908;2024-03-23T04:21:00;3.15;;;0.93;;
61096;SDS011;46977;50.936;6.908;2024-03-23T04:24:01;6.03;;;1.17;;
61096;SDS011;46977;50.936;6.908;2024-03-23T04:27:03;5.40;;;0.88;;
61096;SDS011;46977;50.936;6.908;2024-03-23T04:30:04;6.75;;;1.30;;
61096;SDS011;46977;50.936;6.908;2024-03-23T04:33:11;4.72;;;0.90;;
61096;SDS011;46977;50.936;6.908;2024-03-23T04:36:12;4.97;;;0.93;;
61096;SDS011;46977;50.936;6.908;2024-03-23T04:39:16;7.60;;;1.55;;
61096;SDS011;46977;50.936;6.908;2024-03-23T04:42:18;5.18;;;0.73;;
61096;SDS011;46977;50.936;6.908;2024-03-23T04:45:19;4.18;;;1.48;;
61096;SDS011;46977;50.936;6.908;2024-03-23T04:48:21;11.23;;;1.08;;
61096;SDS011;46977;50.936;6.908;2024-03-23T04:51:23;4.93;;;1.20;;
61096;SDS011;46977;50.936;6.908;2024-03-23T04:54:25;6.30;;;1.00;;
61096;SDS011;46977;50.936;6.908;2024-03-23T04:57:26;5.90;;;1.33;;
61096;SDS011;46977;50.936;6.908;2024-03-23T05:00:27;6.07;;;1.10;;
61096;SDS011;46977;50.936;6.908;2024-03-23T05:03:29;8.43;;;1.52;;
61096;SDS011;46977;50.936;6.908;2024-03-23T05:06:30;5.60;;;1.00;;
61096;SDS011;46977;50.936;6.908;2024-03-23T05:09:31;5.55;;;1.25;;
61096;SDS011;46977;50.936;6.908;2024-03-23T05:12:33;6.82;;;1.85;;
61096;SDS011;46977;50.936;6.908;2024-03-23T05:15:35;4.80;;;1.10;;
61096;SDS011;46977;50.936;6.908;2024-03-23T05:18:36;3.92;;;0.73;;
61096;SDS011;46977;50.936;6.908;2024-03-23T05:21:37;9.82;;;1.48;;
61096;SDS011;46977;50.936;6.908;2024-03-23T05:24:39;12.05;;;1.48;;
61096;SDS011;46977;50.936;6.908;2024-03-23T05:27:40;8.23;;;1.13;;
61096;SDS011;46977;50.936;6.908;2024-03-23T05:30:41;7.28;;;1.02;;
61096;SDS011;46977;50.936;6.908;2024-03-23T05:33:43;2.15;;;0.90;;
61096;SDS011;46977;50.936;6.908;2024-03-23T05:36:44;3.58;;;1.00;;
61096;SDS011;46977;50.936;6.908;2024-03-23T05:39:45;7.55;;;2.35;;
61096;SDS011;46977;50.936;6.908;2024-03-23T05:42:49;6.22;;;1.83;;
61096;SDS011;46977;50.936;6.908;2024-03-23T05:45:57;8.93;;;1.60;;
61096;SDS011;46977;50.936;6.908;2024-03-23T05:49:00;9.35;;;1.42;;
61096;SDS011;46977;50.936;6.908;2024-03-23T05:52:02;6.00;;;1.15;;
61096;SDS011;46977;50.936;6.908;2024-03-23T05:58:06;8.50;;;1.35;;
61096;SDS011;46977;50.936;6.908;2024-03-23T06:01:07;6.47;;;1.05;;
61096;SDS011;46977;50.936;6.908;2024-03-23T06:04:08;14.77;;;2.95;;
61096;SDS011;46977;50.936;6.908;2024-03-23T06:07:10;15.07;;;2.65;;
61096;SDS011;46977;50.936;6.908;2024-03-23T06:10:15;7.38;;;2.28;;
61096;SDS011;46977;50.936;6.908;2024-03-23T06:13:16;3.30;;;1.35;;
61096;SDS011;46977;50.936;6.908;2024-03-23T06:16:18;7.95;;;2.15;;
61096;SDS011;46977;50.936;6.908;2024-03-23T06:19:24;3.65;;;1.30;;
61096;SDS011;46977;50.936;6.908;2024-03-23T06:22:30;7.68;;;1.83;;
61096;SDS011;46977;50.936;6.908;2024-03-23T06:25:32;4.80;;;1.40;;
61096;SDS011;46977;50.936;6.908;2024-03-23T06:28:37;7.35;;;2.15;;
61096;SDS011;46977;50.936;6.908;2024-03-23T06:31:39;5.15;;;1.48;;
61096;SDS011;46977;50.936;6.908;2024-03-23T06:34:43;6.80;;;2.08;;
61096;SDS011;46977;50.936;6.908;2024-03-23T06:37:45;10.30;;;1.83;;
61096;SDS011;46977;50.936;6.908;2024-03-23T06:40:47;8.13;;;1.42;;
61096;SDS011;46977;50.936;6.908;2024-03-23T06:43:51;8.07;;;1.60;;
61096;SDS011;46977;50.936;6.908;2024-03-23T06:46:53;4.88;;;0.80;;
61096;SDS011;46977;50.936;6.908;2024-03-23T06:49:54;5.47;;;1.10;;
61096;SDS011;46977;50.936;6.908;2024-03-23T06:52:55;5.53;;;1.50;;
61096;SDS011;46977;50.936;6.908;2024-03-23T06:55:56;7.18;;;0.90;;
61096;SDS011;46977;50.936;6.908;2024-03-23T06:58:58;3.88;;;1.20;;
61096;SDS011;46977;50.936;6.908;2024-03-23T07:02:00;5.45;;;1.25;;
61096;SDS011;46977;50.936;6.908;2024-03-23T07:05:01;7.13;;;2.25;;
61096;SDS011;46977;50.936;6.908;2024-03-23T07:08:04;6.55;;;1.20;;
61096;SDS011;46977;50.936;6.908;2024-03-23T07:11:06;4.18;;;1.00;;
61096;SDS011;46977;50.936;6.908;2024-03-23T07:14:07;6.13;;;0.90;;
61096;SDS011;46977;50.936;6.908;2024-03-23T07:17:09;5.75;;;1.10;;
61096;SDS011;46977;50.936;6.908;2024-03-23T07:20:22;8.65;;;1.70;;
61096;SDS011;46977;50.936;6.908;2024-03-23T07:23:27;6.82;;;1.52;;
61096;SDS011;46977;50.936;6.908;2024-03-23T07:31:08;5.38;;;1.77;;
61096;SDS011;46977;50.936;6.908;2024-03-23T07:34:24;5.88;;;1.58;;
61096;SDS011;46977;50.936;6.908;2024-03-23T07:38:27;8.15;;;2.58;;
61096;SDS011;46977;50.936;6.908;2024-03-23T07:41:54;8.50;;;2.85;;
61096;SDS011;46977;50.936;6.908;2024-03-23T07:45:04;8.45;;;2.22;;
61096;SDS011;46977;50.936;6.908;2024-03-23T07:48:06;8.30;;;2.33;;
61096;SDS011;46977;50.936;6.908;2024-03-23T07:51:11;6.57;;;2.30;;
61096;SDS011;46977;50.936;6.908;2024-03-23T07:54:12;8.15;;;2.58;;
61096;SDS011;46977;50.936;6.908;2024-03-23T08:00:16;10.32;;;3.08;;
61096;SDS011;46977;50.936;6.908;2024-03-23T08:03:17;7.63;;;2.35;;
61096;SDS011;46977;50.936;6.908;2024-03-23T08:06:19;8.57;;;2.97;;
61096;SDS011;46977;50.936;6.908;2024-03-23T08:09:21;9.32;;;2.60;;
61096;SDS011;46977;50.936;6.908;2024-03-23T08:18:28;6.47;;;2.22;;
61096;SDS011;46977;50.936;6.908;2024-03-23T08:21:30;6.03;;;2.17;;
61096;SDS011;46977;50.936;6.908;2024-03-23T08:24:31;6.88;;;1.77;;
61096;SDS011;46977;50.936;6.908;2024-03-23T08:27:32;3.67;;;1.05;;
61096;SDS011;46977;50.936;6.908;2024-03-23T08:30:34;3.60;;;1.10;;
61096;SDS011;46977;50.936;6.908;2024-03-23T08:33:36;4.53;;;0.80;;
61096;SDS011;46977;50.936;6.908;2024-03-23T08:36:37;3.58;;;1.30;;
61096;SDS011;46977;50.936;6.908;2024-03-23T08:39:39;3.38;;;1.35;;
61096;SDS011;46977;50.936;6.908;2024-03-23T08:42:40;9.93;;;1.80;;
61096;SDS011;46977;50.936;6.908;2024-03-23T08:45:41;4.63;;;2.75;;
61096;SDS011;46977;50.936;6.908;2024-03-23T08:48:43;6.72;;;1.73;;
61096;SDS011;46977;50.936;6.908;2024-03-23T08:51:46;5.93;;;2.03;;
61096;SDS011;46977;50.936;6.908;2024-03-23T08:54:47;7.53;;;2.22;;
61096;SDS011;46977;50.936;6.908;2024-03-23T08:57:48;10.10;;;2.58;;
61096;SDS011;46977;50.936;6.908;2024-03-23T09:00:51;9.65;;;2.50;;
61096;SDS011;46977;50.936;6.908;2024-03-23T09:03:59;10.85;;;2.95;;
61096;SDS011;46977;50.936;6.908;2024-03-23T09:07:00;9.07;;;3.10;;
61096;SDS011;46977;50.936;6.908;2024-03-23T09:10:03;8.05;;;2.90;;
61096;SDS011;46977;50.936;6.908;2024-03-23T09:13:05;6.63;;;2.30;;
61096;SDS011;46977;50.936;6.908;2024-03-23T09:16:06;6.82;;;2.67;;
61096;SDS011;46977;50.936;6.908;2024-03-23T09:19:08;10.60;;;2.60;;
61096;SDS011;46977;50.936;6.908;2024-03-23T09:22:12;7.32;;;2.70;;
61096;SDS011;46977;50.936;6.908;2024-03-23T09:25:13;6.03;;;2.85;;
61096;SDS011;46977;50.936;6.908;2024-03-23T09:28:15;4.45;;;1.77;;
61096;SDS011;46977;50.936;6.908;2024-03-23T09:31:16;5.70;;;2.33;;
61096;SDS011;46977;50.936;6.908;2024-03-23T09:34:18;8.68;;;2.92;;
61096;SDS011;46977;50.936;6.908;2024-03-23T09:37:19;6.43;;;1.40;;
61096;SDS011;46977;50.936;6.908;2024-03-23T09:40:20;9.60;;;2.22;;
61096;SDS011;46977;50.936;6.908;2024-03-23T09:43:22;9.25;;;2.03;;
61096;SDS011;46977;50.936;6.908;2024-03-23T09:46:23;6.93;;;1.95;;
61096;SDS011;46977;50.936;6.908;2024-03-23T09:49:30;7.75;;;2.40;;
61096;SDS011;46977;50.936;6.908;2024-03-23T09:52:31;6.57;;;1.40;;
61096;SDS011;46977;50.936;6.908;2024-03-23T09:55:32;6.53;;;1.67;;
61096;SDS011;46977;50.936;6.908;2024-03-23T09:58:34;4.93;;;1.60;;
61096;SDS011;46977;50.936;6.908;2024-03-23T10:01:35;6.20;;;1.40;;
61096;SDS011;46977;50.936;6.908;2024-03-23T10:07:42;3.75;;;1.05;;
61096;SDS011;46977;50.936;6.908;2024-03-23T10:10:44;4.18;;;1.08;;
61096;SDS011;46977;50.936;6.908;2024-03-23T10:13:47;3.83;;;0.93;;
61096;SDS011;46977;50.936;6.908;2024-03-23T10:16:48;2.55;;;0.80;;
61096;SDS011;46977;50.936;6.908;2024-03-23T10:19:51;4.05;;;0.70;;
61096;SDS011;46977;50.936;6.908;2024-03-23T10:22:53;3.75;;;0.85;;
61096;SDS011;46977;50.936;6.908;2024-03-23T10:25:54;4.32;;;1.02;;
61096;SDS011;46977;50.936;6.908;2024-03-23T10:32:10;6.95;;;1.23;;
61096;SDS011;46977;50.936;6.908;2024-03-23T10:38:17;1.73;;;0.60;;
61096;SDS011;46977;50.936;6.908;2024-03-23T10:41:19;4.90;;;0.63;;
61096;SDS011;46977;50.936;6.908;2024-03-23T10:44:21;5.30;;;1.02;;
61096;SDS011;46977;50.936;6.908;2024-03-23T10:47:27;2.78;;;0.55;;
61096;SDS011;46977;50.936;6.908;2024-03-23T10:50:28;2.38;;;0.85;;
61096;SDS011;46977;50.936;6.908;2024-03-23T10:53:30;3.90;;;0.77;;
61096;SDS011;46977;50.936;6.908;2024-03-23T10:56:35;5.70;;;1.05;;
61096;SDS011;46977;50.936;6.908;2024-03-23T11:02:38;3.65;;;1.20;;
61096;SDS011;46977;50.936;6.908;2024-03-23T11:05:39;0.60;;;0.38;;
61096;SDS011;46977;50.936;6.908;2024-03-23T11:08:47;3.70;;;0.60;;
61096;SDS011;46977;50.936;6.908;2024-03-23T11:11:49;6.13;;;1.52;;
61096;SDS011;46977;50.936;6.908;2024-03-23T11:14:55;2.45;;;0.57;;
61096;SDS011;46977;50.936;6.908;2024-03-23T11:18:03;3.35;;;0.60;;
61096;SDS011;46977;50.936;6.908;2024-03-23T11:21:10;3.95;;;0.65;;
61096;SDS011;46977;50.936;6.908;2024-03-23T11:24:14;4.88;;;0.85;;
61096;SDS011;46977;50.936;6.908;2024-03-23T11:27:16;2.72;;;0.60;;
61096;SDS011;46977;50.936;6.908;2024-03-23T11:30:21;2.13;;;0.50;;
61096;SDS011;46977;50.936;6.908;2024-03-23T11:33:26;2.42;;;0.30;;
61096;SDS011;46977;50.936;6.908;2024-03-23T11:36:27;4.35;;;1.35;;
61096;SDS011;46977;50.936;6.908;2024-03-23T11:39:28;3.20;;;0.43;;
61096;SDS011;46977;50.936;6.908;2024-03-23T11:42:30;2.25;;;0.40;;
61096;SDS011;46977;50.936;6.908;2024-03-23T11:45:38;2.95;;;0.43;;
61096;SDS011;46977;50.936;6.908;2024-03-23T11:48:41;2.88;;;0.63;;
61096;SDS011;46977;50.936;6.908;2024-03-23T11:51:51;3.20;;;0.60;;
61096;SDS011;46977;50.936;6.908;2024-03-23T11:55:04;2.88;;;0.60;;
61096;SDS011;46977;50.936;6.908;2024-03-23T11:58:08;2.45;;;0.82;;
61096;SDS011;46977;50.936;6.908;2024-03-23T12:01:10;2.20;;;0.50;;
61096;SDS011;46977;50.936;6.908;2024-03-23T12:04:12;4.57;;;0.80;;
61096;SDS011;46977;50.936;6.908;2024-03-23T12:07:17;0.50;;;0.30;;
61096;SDS011;46977;50.936;6.908;2024-03-23T12:10:22;1.05;;;0.17;;
61096;SDS011;46977;50.936;6.908;2024-03-23T12:13:24;0.40;;;0.20;;
61096;SDS011;46977;50.936;6.908;2024-03-23T12:16:38;3.25;;;0.30;;
61096;SDS011;46977;50.936;6.908;2024-03-23T12:19:44;1.58;;;0.55;;
61096;SDS011;46977;50.936;6.908;2024-03-23T12:22:49;1.52;;;0.43;;
61096;SDS011;46977;50.936;6.908;2024-03-23T12:25:51;3.00;;;1.00;;
61096;SDS011;46977;50.936;6.908;2024-03-23T12:28:55;1.95;;;0.40;;
61096;SDS011;46977;50.936;6.908;2024-03-23T12:32:02;3.25;;;0.40;;
61096;SDS011;46977;50.936;6.908;2024-03-23T12:35:04;2.35;;;0.65;;
61096;SDS011;46977;50.936;6.908;2024-03-23T12:38:05;1.48;;;0.50;;
61096;SDS011;46977;50.936;6.908;2024-03-23T12:41:11;0.98;;;0.35;;
61096;SDS011;46977;50.936;6.908;2024-03-23T12:44:16;1.60;;;0.40;;
61096;SDS011;46977;50.936;6.908;2024-03-23T12:47:22;0.77;;;0.30;;
61096;SDS011;46977;50.936;6.908;2024-03-23T12:50:29;0.88;;;0.30;;
61096;SDS011;46977;50.936;6.908;2024-03-23T12:53:31;1.23;;;0.20;;
61096;SDS011;46977;50.936;6.908;2024-03-23T12:56:35;1.10;;;0.30;;
61096;SDS011;46977;50.936;6.908;2024-03-23T12:59:40;3.47;;;0.30;;
61096;SDS011;46977;50.936;6.908;2024-03-23T13:02:44;0.75;;;0.30;;
61096;SDS011;46977;50.936;6.908;2024-03-23T13:05:53;1.02;;;0.20;;
61096;SDS011;46977;50.936;6.908;2024-03-23T13:08:58;1.95;;;0.30;;
61096;SDS011;46977;50.936;6.908;2024-03-23T13:12:03;0.20;;;0.20;;
61096;SDS011;46977;50.936;6.908;2024-03-23T13:15:13;0.68;;;0.40;;
61096;SDS011;46977;50.936;6.908;2024-03-23T13:18:30;0.90;;;0.30;;
61096;SDS011;46977;50.936;6.908;2024-03-23T13:21:32;2.17;;;0.70;;
61096;SDS011;46977;50.936;6.908;2024-03-23T13:24:40;3.40;;;0.50;;
61096;SDS011;46977;50.936;6.908;2024-03-23T13:27:47;1.45;;;0.40;;
61096;SDS011;46977;50.936;6.908;2024-03-23T13:30:54;2.53;;;0.60;;
61096;SDS011;46977;50.936;6.908;2024-03-23T13:34:00;2.53;;;0.50;;
61096;SDS011;46977;50.936;6.908;2024-03-23T13:37:03;2.65;;;0.88;;
61096;SDS011;46977;50.936;6.908;2024-03-23T13:43:10;3.15;;;0.90;;
61096;SDS011;46977;50.936;6.908;2024-03-23T13:46:23;2.22;;;0.82;;
61096;SDS011;46977;50.936;6.908;2024-03-23T13:50:31;4.53;;;1.00;;
61096;SDS011;46977;50.936;6.908;2024-03-23T13:54:39;3.67;;;0.80;;
61096;SDS011;46977;50.936;6.908;2024-03-23T13:58:33;3.97;;;0.80;;
61096;SDS011;46977;50.936;6.908;2024-03-23T14:02:25;1.70;;;0.30;;
61096;SDS011;46977;50.936;6.908;2024-03-23T14:05:57;0.75;;;0.75;;
61096;SDS011;46977;50.936;6.908;2024-03-23T14:10:36;2.20;;;0.30;;
61096;SDS011;46977;50.936;6.908;2024-03-23T14:14:36;3.53;;;0.52;;
61096;SDS011;46977;50.936;6.908;2024-03-23T14:18:14;0.80;;;0.20;;
61096;SDS011;46977;50.936;6.908;2024-03-23T14:22:35;0.57;;;0.32;;
61096;SDS011;46977;50.936;6.908;2024-03-23T14:27:20;0.60;;;0.32;;
61096;SDS011;46977;50.936;6.908;2024-03-23T14:30:59;0.95;;;0.30;;
61096;SDS011;46977;50.936;6.908;2024-03-23T14:34:25;1.85;;;0.50;;
61096;SDS011;46977;50.936;6.908;2024-03-23T14:38:38;2.58;;;0.40;;
61096;SDS011;46977;50.936;6.908;2024-03-23T14:46:57;2.95;;;0.90;;
61096;SDS011;46977;50.936;6.908;2024-03-23T14:50:46;1.25;;;0.55;;
61096;SDS011;46977;50.936;6.908;2024-03-23T14:53:48;2.17;;;0.60;;
61096;SDS011;46977;50.936;6.908;2024-03-23T14:56:57;2.42;;;0.60;;
61096;SDS011;46977;50.936;6.908;2024-03-23T15:00:02;2.05;;;0.40;;
61096;SDS011;46977;50.936;6.908;2024-03-23T15:03:15;1.80;;;0.50;;
61096;SDS011;46977;50.936;6.908;2024-03-23T15:06:23;0.43;;;0.30;;
61096;SDS011;46977;50.936;6.908;2024-03-23T15:09:32;2.15;;;0.38;;
61096;SDS011;46977;50.936;6.908;2024-03-23T15:12:34;0.88;;;0.52;;
61096;SDS011;46977;50.936;6.908;2024-03-23T15:15:39;2.53;;;0.50;;
61096;SDS011;46977;50.936;6.908;2024-03-23T15:18:45;1.30;;;0.43;;
61096;SDS011;46977;50.936;6.908;2024-03-23T15:21:47;1.77;;;0.52;;
61096;SDS011;46977;50.936;6.908;2024-03-23T15:24:51;0.45;;;0.30;;
61096;SDS011;46977;50.936;6.908;2024-03-23T15:27:55;2.30;;;0.52;;
61096;SDS011;46977;50.936;6.908;2024-03-23T15:31:03;2.15;;;0.50;;
61096;SDS011;46977;50.936;6.908;2024-03-23T15:34:11;1.10;;;0.50;;
61096;SDS011;46977;50.936;6.908;2024-03-23T15:37:13;5.97;;;0.70;;
61096;SDS011;46977;50.936;6.908;2024-03-23T15:40:15;3.63;;;1.00;;
61096;SDS011;46977;50.936;6.908;2024-03-23T15:43:16;1.88;;;0.80;;
61096;SDS011;46977;50.936;6.908;2024-03-23T15:46:18;1.20;;;0.60;;
61096;SDS011;46977;50.936;6.908;2024-03-23T15:49:20;1.60;;;1.13;;
61096;SDS011;46977;50.936;6.908;2024-03-23T15:52:21;2.63;;;0.70;;
61096;SDS011;46977;50.936;6.908;2024-03-23T15:55:22;4.55;;;0.70;;
61096;SDS011;46977;50.936;6.908;2024-03-23T15:58:24;3.00;;;1.15;;
61096;SDS011;46977;50.936;6.908;2024-03-23T16:01:25;3.70;;;1.15;;
61096;SDS011;46977;50.936;6.908;2024-03-23T16:04:27;3.63;;;1.45;;
61096;SDS011;46977;50.936;6.908;2024-03-23T16:07:28;3.50;;;1.10;;
61096;SDS011;46977;50.936;6.908;2024-03-23T16:10:29;2.88;;;0.90;;
61096;SDS011;46977;50.936;6.908;2024-03-23T16:13:33;2.03;;;0.70;;
61096;SDS011;46977;50.936;6.908;2024-03-23T16:16:34;1.60;;;0.63;;
61096;SDS011;46977;50.936;6.908;2024-03-23T16:19:36;2.80;;;0.77;;
61096;SDS011;46977;50.936;6.908;2024-03-23T16:22:40;2.13;;;0.40;;
61096;SDS011;46977;50.936;6.908;2024-03-23T16:25:46;3.47;;;0.40;;
61096;SDS011;46977;50.936;6.908;2024-03-23T16:28:50;2.83;;;0.60;;
61096;SDS011;46977;50.936;6.908;2024-03-23T16:31:54;1.23;;;0.50;;
61096;SDS011;46977;50.936;6.908;2024-03-23T16:34:56;3.53;;;0.82;;
61096;SDS011;46977;50.936;6.908;2024-03-23T16:38:00;0.88;;;0.38;;
61096;SDS011;46977;50.936;6.908;2024-03-23T16:41:05;0.93;;;0.50;;
61096;SDS011;46977;50.936;6.908;2024-03-23T16:44:22;3.13;;;0.50;;
61096;SDS011;46977;50.936;6.908;2024-03-23T16:47:27;1.45;;;0.50;;
61096;SDS011;46977;50.936;6.908;2024-03-23T16:50:37;1.65;;;0.50;;
61096;SDS011;46977;50.936;6.908;2024-03-23T16:53:40;0.82;;;0.60;;
61096;SDS011;46977;50.936;6.908;2024-03-23T16:56:47;3.08;;;1.00;;
61096;SDS011;46977;50.936;6.908;2024-03-23T16:59:48;2.05;;;0.43;;
61096;SDS011;46977;50.936;6.908;2024-03-23T17:02:50;2.10;;;0.70;;
61096;SDS011;46977;50.936;6.908;2024-03-23T17:05:51;1.00;;;0.88;;
61096;SDS011;46977;50.936;6.908;2024-03-23T17:08:53;1.15;;;0.60;;
61096;SDS011;46977;50.936;6.908;2024-03-23T17:11:55;4.20;;;0.60;;
61096;SDS011;46977;50.936;6.908;2024-03-23T17:14:56;0.80;;;0.40;;
61096;SDS011;46977;50.936;6.908;2024-03-23T17:18:04;0.50;;;0.40;;
61096;SDS011;46977;50.936;6.908;2024-03-23T17:21:15;3.45;;;0.47;;
61096;SDS011;46977;50.936;6.908;2024-03-23T17:24:25;3.17;;;1.20;;
61096;SDS011;46977;50.936;6.908;2024-03-23T17:27:38;2.20;;;0.75;;
61096;SDS011;46977;50.936;6.908;2024-03-23T17:30:50;0.63;;;0.45;;
61096;SDS011;46977;50.936;6.908;2024-03-23T17:34:24;1.45;;;0.50;;
61096;SDS011;46977;50.936;6.908;2024-03-23T17:37:27;0.90;;;0.47;;
61096;SDS011;46977;50.936;6.908;2024-03-23T17:40:35;1.52;;;0.50;;
61096;SDS011;46977;50.936;6.908;2024-03-23T17:44:05;2.17;;;0.50;;
61096;SDS011;46977;50.936;6.908;2024-03-23T17:50:44;1.20;;;0.60;;
61096;SDS011;46977;50.936;6.908;2024-03-23T17:53:47;2.45;;;0.57;;
61096;SDS011;46977;50.936;6.908;2024-03-23T17:56:54;10.65;;;4.45;;
61096;SDS011;46977;50.936;6.908;2024-03-23T18:00:03;1.40;;;0.70;;
61096;SDS011;46977;50.936;6.908;2024-03-23T18:03:24;2.55;;;0.80;;
61096;SDS011;46977;50.936;6.908;2024-03-23T18:06:29;2.10;;;0.98;;
61096;SDS011;46977;50.936;6.908;2024-03-23T18:09:34;2.78;;;1.20;;
61096;SDS011;46977;50.936;6.908;2024-03-23T18:12:41;8.48;;;3.50;;
61096;SDS011;46977;50.936;6.908;2024-03-23T18:15:45;2.15;;;0.88;;
61096;SDS011;46977;50.936;6.908;2024-03-23T18:19:23;4.72;;;0.93;;
61096;SDS011;46977;50.936;6.908;2024-03-23T18:30:06;5.45;;;2.58;;
61096;SDS011;46977;50.936;6.908;2024-03-23T18:33:13;3.05;;;1.30;;
61096;SDS011;46977;50.936;6.908;2024-03-23T18:36:23;2.60;;;0.90;;
61096;SDS011;46977;50.936;6.908;2024-03-23T18:39:32;1.55;;;0.60;;
61096;SDS011;46977;50.936;6.908;2024-03-23T18:42:33;3.47;;;0.70;;
61096;SDS011;46977;50.936;6.908;2024-03-23T18:45:50;2.85;;;0.82;;
61096;SDS011;46977;50.936;6.908;2024-03-23T18:49:01;4.78;;;0.98;;
61096;SDS011;46977;50.936;6.908;2024-03-23T18:52:10;3.55;;;1.08;;
61096;SDS011;46977;50.936;6.908;2024-03-23T18:55:14;1.20;;;0.82;;
61096;SDS011;46977;50.936;6.908;2024-03-23T18:58:17;16.63;;;5.47;;
61096;SDS011;46977;50.936;6.908;2024-03-23T19:01:23;5.22;;;2.40;;
61096;SDS011;46977;50.936;6.908;2024-03-23T19:09:47;3.83;;;1.55;;
61096;SDS011;46977;50.936;6.908;2024-03-23T19:12:54;4.32;;;1.90;;
61096;SDS011;46977;50.936;6.908;2024-03-23T19:16:14;9.57;;;2.65;;
61096;SDS011;46977;50.936;6.908;2024-03-23T19:19:37;5.93;;;2.65;;
61096;SDS011;46977;50.936;6.908;2024-03-23T19:22:42;7.40;;;2.88;;
61096;SDS011;46977;50.936;6.908;2024-03-23T19:25:44;4.53;;;1.85;;
61096;SDS011;46977;50.936;6.908;2024-03-23T19:29:07;5.70;;;3.17;;
61096;SDS011;46977;50.936;6.908;2024-03-23T19:32:14;6.88;;;3.13;;
61096;SDS011;46977;50.936;6.908;2024-03-23T19:35:56;6.60;;;3.03;;
61096;SDS011;46977;50.936;6.908;2024-03-23T19:42:06;5.25;;;1.98;;
61096;SDS011;46977;50.936;6.908;2024-03-23T19:45:23;4.03;;;1.23;;
61096;SDS011;46977;50.936;6.908;2024-03-23T19:48:25;3.97;;;1.58;;
61096;SDS011;46977;50.936;6.908;2024-03-23T19:51:26;2.17;;;1.42;;
61096;SDS011;46977;50.936;6.908;2024-03-23T19:54:27;4.35;;;1.33;;
61096;SDS011;46977;50.936;6.908;2024-03-23T19:57:29;4.03;;;1.90;;
61096;SDS011;46977;50.936;6.908;2024-03-23T20:03:32;3.73;;;1.50;;
61096;SDS011;46977;50.936;6.908;2024-03-23T20:06:34;7.07;;;2.45;;
61096;SDS011;46977;50.936;6.908;2024-03-23T20:09:36;4.97;;;2.28;;
61096;SDS011;46977;50.936;6.908;2024-03-23T20:12:38;7.90;;;3.50;;
61096;SDS011;46977;50.936;6.908;2024-03-23T20:15:39;9.13;;;3.60;;
61096;SDS011;46977;50.936;6.908;2024-03-23T20:18:43;7.60;;;4.57;;
61096;SDS011;46977;50.936;6.908;2024-03-23T20:21:44;4.40;;;1.83;;
61096;SDS011;46977;50.936;6.908;2024-03-23T20:24:45;6.35;;;2.08;;
61096;SDS011;46977;50.936;6.908;2024-03-23T20:27:47;5.32;;;2.53;;
61096;SDS011;46977;50.936;6.908;2024-03-23T20:30:58;4.35;;;2.20;;
61096;SDS011;46977;50.936;6.908;2024-03-23T20:34:01;6.80;;;2.78;;
61096;SDS011;46977;50.936;6.908;2024-03-23T20:40:04;7.10;;;1.88;;